sensor_id;sensor_type;location;lat;lon;timestamp;P1;durP1;ratioP1;P2;durP2;ratioP2
73130;SDS011;64204;13.766;100.702;2023-11-18T00:02:05;5.63;;;2.40;;
73130;SDS011;64204;13.766;100.702;2023-11-18T00:04:31;8.10;;;2.42;;
73130;SDS011;64204;13.766;100.702;2023-11-18T00:06:57;8.35;;;2.38;;
73130;SDS011;64204;13.766;100.702;2023-11-18T00:09:24;8.05;;;2.47;;
73130;SDS011;64204;13.766;100.702;2023-11-18T00:11:51;7.95;;;2.42;;
73130;SDS011;64204;13.766;100.702;2023-11-18T00:14:17;10.85;;;2.80;;
73130;SDS011;64204;13.766;100.702;2023-11-18T00:16:44;9.13;;;2.90;;
73130;SDS011;64204;13.766;100.702;2023-11-18T00:19:10;7.25;;;2.65;;
73130;SDS011;64204;13.766;100.702;2023-11-18T00:21:37;6.65;;;2.15;;
73130;SDS011;64204;13.766;100.702;2023-11-18T00:24:03;7.88;;;2.75;;
73130;SDS011;64204;13.766;100.702;2023-11-18T00:26:30;9.95;;;2.42;;
73130;SDS011;64204;13.766;100.702;2023-11-18T00:28:56;9.80;;;2.97;;
73130;SDS011;64204;13.766;100.702;2023-11-18T00:31:23;6.70;;;2.80;;
73130;SDS011;64204;13.766;100.702;2023-11-18T00:33:50;5.88;;;2.20;;
73130;SDS011;64204;13.766;100.702;2023-11-18T00:36:16;7.60;;;2.58;;
73130;SDS011;64204;13.766;100.702;2023-11-18T00:38:43;6.32;;;2.10;;
73130;SDS011;64204;13.766;100.702;2023-11-18T00:41:09;7.32;;;2.30;;
73130;SDS011;64204;13.766;100.702;2023-11-18T00:43:36;9.80;;;2.80;;
73130;SDS011;64204;13.766;100.702;2023-11-18T00:46:02;7.72;;;2.58;;
73130;SDS011;64204;13.766;100.702;2023-11-18T00:48:30;8.55;;;2.70;;
73130;SDS011;64204;13.766;100.702;2023-11-18T00:50:56;7.65;;;2.30;;
73130;SDS011;64204;13.766;100.702;2023-11-18T00:53:23;5.82;;;2.10;;
73130;SDS011;64204;13.766;100.702;2023-11-18T00:55:49;8.27;;;1.98;;
73130;SDS011;64204;13.766;100.702;2023-11-18T00:58:16;4.65;;;1.85;;
73130;SDS011;64204;13.766;100.702;2023-11-18T01:00:42;11.20;;;2.60;;
73130;SDS011;64204;13.766;100.702;2023-11-18T01:03:08;10.13;;;2.63;;
73130;SDS011;64204;13.766;100.702;2023-11-18T01:05:35;6.35;;;2.60;;
73130;SDS011;64204;13.766;100.702;2023-11-18T01:08:02;8.45;;;2.25;;
73130;SDS011;64204;13.766;100.702;2023-11-18T01:10:30;9.13;;;2.30;;
73130;SDS011;64204;13.766;100.702;2023-11-18T01:12:56;8.02;;;2.45;;
73130;SDS011;64204;13.766;100.702;2023-11-18T01:15:23;8.38;;;2.72;;
73130;SDS011;64204;13.766;100.702;2023-11-18T01:17:49;5.50;;;2.55;;
73130;SDS011;64204;13.766;100.702;2023-11-18T01:20:16;8.25;;;2.80;;
73130;SDS011;64204;13.766;100.702;2023-11-18T01:22:47;9.20;;;2.63;;
73130;SDS011;64204;13.766;100.702;2023-11-18T01:25:14;9.80;;;2.10;;
73130;SDS011;64204;13.766;100.702;2023-11-18T01:27:44;9.52;;;2.47;;
73130;SDS011;64204;13.766;100.702;2023-11-18T01:30:13;7.88;;;2.50;;
73130;SDS011;64204;13.766;100.702;2023-11-18T01:32:40;9.50;;;2.55;;
73130;SDS011;64204;13.766;100.702;2023-11-18T01:35:07;11.45;;;2.85;;
73130;SDS011;64204;13.766;100.702;2023-11-18T01:37:36;6.72;;;2.25;;
73130;SDS011;64204;13.766;100.702;2023-11-18T01:40:02;7.68;;;2.80;;
73130;SDS011;64204;13.766;100.702;2023-11-18T01:42:33;4.75;;;2.63;;
73130;SDS011;64204;13.766;100.702;2023-11-18T01:45:00;7.68;;;2.85;;
73130;SDS011;64204;13.766;100.702;2023-11-18T01:47:29;6.28;;;2.55;;
73130;SDS011;64204;13.766;100.702;2023-11-18T01:49:58;9.70;;;2.83;;
73130;SDS011;64204;13.766;100.702;2023-11-18T01:52:26;9.20;;;3.10;;
73130;SDS011;64204;13.766;100.702;2023-11-18T01:54:55;10.40;;;2.72;;
73130;SDS011;64204;13.766;100.702;2023-11-18T01:57:21;8.13;;;2.35;;
73130;SDS011;64204;13.766;100.702;2023-11-18T01:59:48;10.57;;;2.70;;
73130;SDS011;64204;13.766;100.702;2023-11-18T02:02:15;8.27;;;2.58;;
73130;SDS011;64204;13.766;100.702;2023-11-18T02:04:41;8.25;;;2.78;;
73130;SDS011;64204;13.766;100.702;2023-11-18T02:07:10;13.57;;;3.30;;
73130;SDS011;64204;13.766;100.702;2023-11-18T02:09:37;7.75;;;2.40;;
73130;SDS011;64204;13.766;100.702;2023-11-18T02:14:53;7.25;;;2.22;;
73130;SDS011;64204;13.766;100.702;2023-11-18T02:17:21;9.73;;;2.90;;
73130;SDS011;64204;13.766;100.702;2023-11-18T02:19:55;6.47;;;2.45;;
73130;SDS011;64204;13.766;100.702;2023-11-18T02:22:23;10.63;;;2.67;;
73130;SDS011;64204;13.766;100.702;2023-11-18T02:24:50;8.45;;;2.40;;
73130;SDS011;64204;13.766;100.702;2023-11-18T02:27:16;6.57;;;2.72;;
73130;SDS011;64204;13.766;100.702;2023-11-18T02:29:45;8.82;;;2.53;;
73130;SDS011;64204;13.766;100.702;2023-11-18T02:32:23;6.60;;;2.22;;
73130;SDS011;64204;13.766;100.702;2023-11-18T02:35:14;9.50;;;2.30;;
73130;SDS011;64204;13.766;100.702;2023-11-18T02:37:40;6.97;;;2.50;;
73130;SDS011;64204;13.766;100.702;2023-11-18T02:40:07;12.52;;;2.92;;
73130;SDS011;64204;13.766;100.702;2023-11-18T02:42:40;7.53;;;2.45;;
73130;SDS011;64204;13.766;100.702;2023-11-18T02:45:08;6.47;;;2.50;;
73130;SDS011;64204;13.766;100.702;2023-11-18T02:47:37;10.48;;;3.15;;
73130;SDS011;64204;13.766;100.702;2023-11-18T02:50:07;7.13;;;2.40;;
73130;SDS011;64204;13.766;100.702;2023-11-18T02:52:36;5.55;;;2.30;;
73130;SDS011;64204;13.766;100.702;2023-11-18T02:55:04;9.45;;;3.10;;
73130;SDS011;64204;13.766;100.702;2023-11-18T02:57:34;9.07;;;2.88;;
73130;SDS011;64204;13.766;100.702;2023-11-18T03:00:02;8.35;;;2.47;;
73130;SDS011;64204;13.766;100.702;2023-11-18T03:02:30;10.35;;;2.90;;
73130;SDS011;64204;13.766;100.702;2023-11-18T03:04:57;8.38;;;2.72;;
73130;SDS011;64204;13.766;100.702;2023-11-18T03:07:23;9.63;;;2.80;;
73130;SDS011;64204;13.766;100.702;2023-11-18T03:09:55;6.20;;;2.65;;
73130;SDS011;64204;13.766;100.702;2023-11-18T03:12:22;6.85;;;3.00;;
73130;SDS011;64204;13.766;100.702;2023-11-18T03:14:52;4.10;;;2.40;;
73130;SDS011;64204;13.766;100.702;2023-11-18T03:17:19;5.38;;;2.17;;
73130;SDS011;64204;13.766;100.702;2023-11-18T03:19:45;6.88;;;2.28;;
73130;SDS011;64204;13.766;100.702;2023-11-18T03:22:12;9.32;;;2.60;;
73130;SDS011;64204;13.766;100.702;2023-11-18T03:24:38;11.18;;;2.55;;
73130;SDS011;64204;13.766;100.702;2023-11-18T03:27:05;7.07;;;2.60;;
73130;SDS011;64204;13.766;100.702;2023-11-18T03:29:34;6.97;;;2.35;;
73130;SDS011;64204;13.766;100.702;2023-11-18T03:32:01;7.20;;;2.72;;
73130;SDS011;64204;13.766;100.702;2023-11-18T03:34:29;7.75;;;2.50;;
73130;SDS011;64204;13.766;100.702;2023-11-18T03:36:55;7.35;;;2.67;;
73130;SDS011;64204;13.766;100.702;2023-11-18T03:39:22;6.47;;;2.72;;
73130;SDS011;64204;13.766;100.702;2023-11-18T03:41:48;7.55;;;3.00;;
73130;SDS011;64204;13.766;100.702;2023-11-18T03:44:15;4.40;;;2.30;;
73130;SDS011;64204;13.766;100.702;2023-11-18T03:46:42;8.32;;;2.70;;
73130;SDS011;64204;13.766;100.702;2023-11-18T03:49:08;6.05;;;2.33;;
73130;SDS011;64204;13.766;100.702;2023-11-18T03:51:35;6.70;;;2.78;;
73130;SDS011;64204;13.766;100.702;2023-11-18T03:54:01;11.73;;;3.47;;
73130;SDS011;64204;13.766;100.702;2023-11-18T03:56:28;6.40;;;2.33;;
73130;SDS011;64204;13.766;100.702;2023-11-18T03:58:54;7.05;;;2.83;;
73130;SDS011;64204;13.766;100.702;2023-11-18T04:01:21;7.25;;;2.92;;
73130;SDS011;64204;13.766;100.702;2023-11-18T04:03:53;7.03;;;2.58;;
73130;SDS011;64204;13.766;100.702;2023-11-18T04:06:21;7.32;;;2.97;;
73130;SDS011;64204;13.766;100.702;2023-11-18T04:08:48;9.50;;;3.13;;
73130;SDS011;64204;13.766;100.702;2023-11-18T04:11:14;6.05;;;2.60;;
73130;SDS011;64204;13.766;100.702;2023-11-18T04:13:41;9.32;;;3.28;;
73130;SDS011;64204;13.766;100.702;2023-11-18T04:16:11;8.52;;;4.03;;
73130;SDS011;64204;13.766;100.702;2023-11-18T04:18:44;6.68;;;2.58;;
73130;SDS011;64204;13.766;100.702;2023-11-18T04:21:11;12.27;;;3.15;;
73130;SDS011;64204;13.766;100.702;2023-11-18T04:23:42;7.40;;;2.97;;
73130;SDS011;64204;13.766;100.702;2023-11-18T04:26:11;7.38;;;2.83;;
73130;SDS011;64204;13.766;100.702;2023-11-18T04:28:38;9.18;;;3.10;;
73130;SDS011;64204;13.766;100.702;2023-11-18T04:31:04;7.85;;;2.70;;
73130;SDS011;64204;13.766;100.702;2023-11-18T04:33:31;6.60;;;2.60;;
73130;SDS011;64204;13.766;100.702;2023-11-18T04:35:58;5.72;;;3.08;;
73130;SDS011;64204;13.766;100.702;2023-11-18T04:38:25;9.45;;;3.78;;
73130;SDS011;64204;13.766;100.702;2023-11-18T04:40:52;5.38;;;2.70;;
73130;SDS011;64204;13.766;100.702;2023-11-18T04:43:20;5.63;;;2.60;;
73130;SDS011;64204;13.766;100.702;2023-11-18T04:45:47;5.68;;;2.90;;
73130;SDS011;64204;13.766;100.702;2023-11-18T04:48:14;7.30;;;2.65;;
73130;SDS011;64204;13.766;100.702;2023-11-18T04:50:43;7.32;;;2.90;;
73130;SDS011;64204;13.766;100.702;2023-11-18T04:53:10;10.60;;;3.15;;
73130;SDS011;64204;13.766;100.702;2023-11-18T04:55:36;10.18;;;5.18;;
73130;SDS011;64204;13.766;100.702;2023-11-18T04:58:03;9.50;;;3.40;;
73130;SDS011;64204;13.766;100.702;2023-11-18T05:00:38;6.65;;;3.25;;
73130;SDS011;64204;13.766;100.702;2023-11-18T05:03:05;8.65;;;3.17;;
73130;SDS011;64204;13.766;100.702;2023-11-18T05:05:37;4.88;;;2.50;;
73130;SDS011;64204;13.766;100.702;2023-11-18T05:08:07;11.68;;;2.88;;
73130;SDS011;64204;13.766;100.702;2023-11-18T05:10:46;9.10;;;2.45;;
73130;SDS011;64204;13.766;100.702;2023-11-18T05:13:13;7.80;;;2.47;;
73130;SDS011;64204;13.766;100.702;2023-11-18T05:15:45;7.80;;;3.40;;
73130;SDS011;64204;13.766;100.702;2023-11-18T05:18:12;7.80;;;2.90;;
73130;SDS011;64204;13.766;100.702;2023-11-18T05:20:40;10.55;;;3.13;;
73130;SDS011;64204;13.766;100.702;2023-11-18T05:23:07;10.68;;;3.38;;
73130;SDS011;64204;13.766;100.702;2023-11-18T05:25:39;12.98;;;3.50;;
73130;SDS011;64204;13.766;100.702;2023-11-18T05:28:11;8.32;;;3.20;;
73130;SDS011;64204;13.766;100.702;2023-11-18T05:30:38;10.90;;;3.40;;
73130;SDS011;64204;13.766;100.702;2023-11-18T05:33:10;9.75;;;3.50;;
73130;SDS011;64204;13.766;100.702;2023-11-18T05:35:43;9.20;;;3.47;;
73130;SDS011;64204;13.766;100.702;2023-11-18T05:38:19;7.22;;;3.28;;
73130;SDS011;64204;13.766;100.702;2023-11-18T05:40:51;9.60;;;3.40;;
73130;SDS011;64204;13.766;100.702;2023-11-18T05:43:27;11.15;;;3.72;;
73130;SDS011;64204;13.766;100.702;2023-11-18T05:45:58;10.00;;;3.58;;
73130;SDS011;64204;13.766;100.702;2023-11-18T05:48:43;8.98;;;3.55;;
73130;SDS011;64204;13.766;100.702;2023-11-18T05:51:10;8.23;;;3.22;;
73130;SDS011;64204;13.766;100.702;2023-11-18T05:53:40;6.97;;;2.97;;
73130;SDS011;64204;13.766;100.702;2023-11-18T05:56:09;6.75;;;3.55;;
73130;SDS011;64204;13.766;100.702;2023-11-18T05:58:36;8.85;;;3.40;;
73130;SDS011;64204;13.766;100.702;2023-11-18T06:01:04;10.82;;;4.00;;
73130;SDS011;64204;13.766;100.702;2023-11-18T06:03:33;9.32;;;3.38;;
73130;SDS011;64204;13.766;100.702;2023-11-18T06:06:07;10.15;;;3.40;;
73130;SDS011;64204;13.766;100.702;2023-11-18T06:08:35;6.95;;;3.20;;
73130;SDS011;64204;13.766;100.702;2023-11-18T06:11:09;9.82;;;3.33;;
73130;SDS011;64204;13.766;100.702;2023-11-18T06:13:57;7.05;;;2.78;;
73130;SDS011;64204;13.766;100.702;2023-11-18T06:16:24;8.38;;;3.83;;
73130;SDS011;64204;13.766;100.702;2023-11-18T06:18:55;7.50;;;3.40;;
73130;SDS011;64204;13.766;100.702;2023-11-18T06:21:23;13.43;;;3.50;;
73130;SDS011;64204;13.766;100.702;2023-11-18T06:23:50;9.73;;;3.63;;
73130;SDS011;64204;13.766;100.702;2023-11-18T06:26:17;22.27;;;4.60;;
73130;SDS011;64204;13.766;100.702;2023-11-18T06:28:44;9.68;;;3.35;;
73130;SDS011;64204;13.766;100.702;2023-11-18T06:31:11;11.65;;;4.00;;
73130;SDS011;64204;13.766;100.702;2023-11-18T06:33:39;9.20;;;3.53;;
73130;SDS011;64204;13.766;100.702;2023-11-18T06:38:42;11.50;;;3.92;;
73130;SDS011;64204;13.766;100.702;2023-11-18T06:41:12;9.57;;;3.85;;
73130;SDS011;64204;13.766;100.702;2023-11-18T06:43:40;7.72;;;3.38;;
73130;SDS011;64204;13.766;100.702;2023-11-18T06:46:32;9.70;;;3.50;;
73130;SDS011;64204;13.766;100.702;2023-11-18T06:49:05;9.23;;;3.30;;
73130;SDS011;64204;13.766;100.702;2023-11-18T06:51:33;6.70;;;2.85;;
73130;SDS011;64204;13.766;100.702;2023-11-18T06:54:01;12.60;;;3.55;;
73130;SDS011;64204;13.766;100.702;2023-11-18T06:56:34;7.88;;;3.53;;
73130;SDS011;64204;13.766;100.702;2023-11-18T06:59:05;6.57;;;3.33;;
73130;SDS011;64204;13.766;100.702;2023-11-18T07:01:38;7.47;;;2.80;;
73130;SDS011;64204;13.766;100.702;2023-11-18T07:06:35;10.38;;;2.85;;
73130;SDS011;64204;13.766;100.702;2023-11-18T07:09:06;6.28;;;2.58;;
73130;SDS011;64204;13.766;100.702;2023-11-18T07:11:42;7.43;;;4.15;;
73130;SDS011;64204;13.766;100.702;2023-11-18T07:14:09;6.72;;;3.08;;
73130;SDS011;64204;13.766;100.702;2023-11-18T07:16:40;10.80;;;3.28;;
73130;SDS011;64204;13.766;100.702;2023-11-18T07:19:07;8.35;;;3.17;;
73130;SDS011;64204;13.766;100.702;2023-11-18T07:21:40;10.60;;;3.70;;
73130;SDS011;64204;13.766;100.702;2023-11-18T07:24:07;10.23;;;3.00;;
73130;SDS011;64204;13.766;100.702;2023-11-18T07:26:33;6.95;;;3.10;;
73130;SDS011;64204;13.766;100.702;2023-11-18T07:29:00;7.80;;;3.22;;
73130;SDS011;64204;13.766;100.702;2023-11-18T07:31:26;8.50;;;3.22;;
73130;SDS011;64204;13.766;100.702;2023-11-18T07:33:53;8.13;;;3.17;;
73130;SDS011;64204;13.766;100.702;2023-11-18T07:36:20;7.60;;;2.95;;
73130;SDS011;64204;13.766;100.702;2023-11-18T07:38:46;6.05;;;3.25;;
73130;SDS011;64204;13.766;100.702;2023-11-18T07:41:13;6.63;;;3.28;;
73130;SDS011;64204;13.766;100.702;2023-11-18T07:43:49;6.68;;;3.45;;
73130;SDS011;64204;13.766;100.702;2023-11-18T07:46:18;7.78;;;3.63;;
73130;SDS011;64204;13.766;100.702;2023-11-18T07:48:48;9.73;;;2.80;;
73130;SDS011;64204;13.766;100.702;2023-11-18T07:51:20;9.18;;;3.90;;
73130;SDS011;64204;13.766;100.702;2023-11-18T07:53:49;7.57;;;2.92;;
73130;SDS011;64204;13.766;100.702;2023-11-18T07:56:16;8.13;;;3.45;;
73130;SDS011;64204;13.766;100.702;2023-11-18T07:58:43;8.10;;;3.67;;
73130;SDS011;64204;13.766;100.702;2023-11-18T08:01:12;13.35;;;3.58;;
73130;SDS011;64204;13.766;100.702;2023-11-18T08:03:41;6.60;;;3.88;;
73130;SDS011;64204;13.766;100.702;2023-11-18T08:06:10;7.80;;;3.38;;
73130;SDS011;64204;13.766;100.702;2023-11-18T08:08:37;10.23;;;3.97;;
73130;SDS011;64204;13.766;100.702;2023-11-18T08:11:09;9.00;;;3.35;;
73130;SDS011;64204;13.766;100.702;2023-11-18T08:13:37;7.65;;;3.20;;
73130;SDS011;64204;13.766;100.702;2023-11-18T08:16:03;6.75;;;3.40;;
73130;SDS011;64204;13.766;100.702;2023-11-18T08:18:32;6.47;;;2.83;;
73130;SDS011;64204;13.766;100.702;2023-11-18T08:20:59;9.50;;;3.25;;
73130;SDS011;64204;13.766;100.702;2023-11-18T08:23:27;8.25;;;3.55;;
73130;SDS011;64204;13.766;100.702;2023-11-18T08:25:54;6.47;;;3.47;;
73130;SDS011;64204;13.766;100.702;2023-11-18T08:28:20;5.30;;;3.17;;
73130;SDS011;64204;13.766;100.702;2023-11-18T08:30:47;11.88;;;3.53;;
73130;SDS011;64204;13.766;100.702;2023-11-18T08:33:14;7.72;;;3.20;;
73130;SDS011;64204;13.766;100.702;2023-11-18T08:35:40;8.10;;;3.45;;
73130;SDS011;64204;13.766;100.702;2023-11-18T08:38:07;13.52;;;4.07;;
73130;SDS011;64204;13.766;100.702;2023-11-18T08:40:38;9.20;;;3.22;;
73130;SDS011;64204;13.766;100.702;2023-11-18T08:43:04;8.00;;;3.28;;
73130;SDS011;64204;13.766;100.702;2023-11-18T08:48:03;9.20;;;3.78;;
73130;SDS011;64204;13.766;100.702;2023-11-18T08:50:33;10.65;;;3.70;;
73130;SDS011;64204;13.766;100.702;2023-11-18T08:53:01;11.68;;;3.17;;
73130;SDS011;64204;13.766;100.702;2023-11-18T08:55:32;6.05;;;3.15;;
73130;SDS011;64204;13.766;100.702;2023-11-18T08:58:06;9.15;;;3.03;;
73130;SDS011;64204;13.766;100.702;2023-11-18T09:00:54;8.30;;;3.35;;
73130;SDS011;64204;13.766;100.702;2023-11-18T09:03:30;7.60;;;3.20;;
73130;SDS011;64204;13.766;100.702;2023-11-18T09:06:08;10.00;;;3.30;;
73130;SDS011;64204;13.766;100.702;2023-11-18T09:08:51;6.60;;;3.28;;
73130;SDS011;64204;13.766;100.702;2023-11-18T09:11:22;7.07;;;3.35;;
73130;SDS011;64204;13.766;100.702;2023-11-18T09:13:52;11.73;;;3.53;;
73130;SDS011;64204;13.766;100.702;2023-11-18T09:16:25;8.32;;;3.22;;
73130;SDS011;64204;13.766;100.702;2023-11-18T09:18:55;9.10;;;2.95;;
73130;SDS011;64204;13.766;100.702;2023-11-18T09:21:27;11.88;;;3.97;;
73130;SDS011;64204;13.766;100.702;2023-11-18T09:23:54;9.27;;;3.42;;
73130;SDS011;64204;13.766;100.702;2023-11-18T09:26:24;11.13;;;4.13;;
73130;SDS011;64204;13.766;100.702;2023-11-18T09:28:55;10.85;;;3.95;;
73130;SDS011;64204;13.766;100.702;2023-11-18T09:31:22;9.90;;;3.42;;
73130;SDS011;64204;13.766;100.702;2023-11-18T09:33:49;12.65;;;4.28;;
73130;SDS011;64204;13.766;100.702;2023-11-18T09:36:18;8.85;;;3.20;;
73130;SDS011;64204;13.766;100.702;2023-11-18T09:38:45;8.43;;;4.05;;
73130;SDS011;64204;13.766;100.702;2023-11-18T09:41:12;11.88;;;4.80;;
73130;SDS011;64204;13.766;100.702;2023-11-18T09:43:39;12.73;;;4.00;;
73130;SDS011;64204;13.766;100.702;2023-11-18T09:46:26;7.97;;;3.78;;
73130;SDS011;64204;13.766;100.702;2023-11-18T09:51:41;8.85;;;4.03;;
73130;SDS011;64204;13.766;100.702;2023-11-18T09:54:11;9.38;;;4.45;;
73130;SDS011;64204;13.766;100.702;2023-11-18T10:00:03;10.98;;;4.45;;
73130;SDS011;64204;13.766;100.702;2023-11-18T10:02:45;10.20;;;3.80;;
73130;SDS011;64204;13.766;100.702;2023-11-18T10:05:12;9.95;;;3.92;;
73130;SDS011;64204;13.766;100.702;2023-11-18T10:07:40;11.40;;;3.95;;
73130;SDS011;64204;13.766;100.702;2023-11-18T10:10:07;13.93;;;4.38;;
73130;SDS011;64204;13.766;100.702;2023-11-18T10:12:43;11.75;;;4.70;;
73130;SDS011;64204;13.766;100.702;2023-11-18T10:15:16;10.82;;;4.90;;
73130;SDS011;64204;13.766;100.702;2023-11-18T10:17:45;15.82;;;4.65;;
73130;SDS011;64204;13.766;100.702;2023-11-18T10:20:22;12.82;;;4.45;;
73130;SDS011;64204;13.766;100.702;2023-11-18T10:23:06;13.00;;;5.53;;
73130;SDS011;64204;13.766;100.702;2023-11-18T10:25:56;8.45;;;4.43;;
73130;SDS011;64204;13.766;100.702;2023-11-18T10:31:01;11.05;;;5.20;;
73130;SDS011;64204;13.766;100.702;2023-11-18T10:33:36;12.57;;;5.55;;
73130;SDS011;64204;13.766;100.702;2023-11-18T10:36:05;9.82;;;4.57;;
73130;SDS011;64204;13.766;100.702;2023-11-18T10:38:38;16.23;;;5.70;;
73130;SDS011;64204;13.766;100.702;2023-11-18T10:43:38;15.45;;;6.13;;
73130;SDS011;64204;13.766;100.702;2023-11-18T10:46:10;10.93;;;6.13;;
73130;SDS011;64204;13.766;100.702;2023-11-18T10:48:44;10.05;;;4.93;;
73130;SDS011;64204;13.766;100.702;2023-11-18T10:51:18;9.40;;;5.88;;
73130;SDS011;64204;13.766;100.702;2023-11-18T10:53:49;13.05;;;5.57;;
73130;SDS011;64204;13.766;100.702;2023-11-18T10:56:45;12.05;;;5.40;;
73130;SDS011;64204;13.766;100.702;2023-11-18T10:59:12;11.52;;;5.68;;
73130;SDS011;64204;13.766;100.702;2023-11-18T11:01:42;10.25;;;5.82;;
73130;SDS011;64204;13.766;100.702;2023-11-18T11:04:09;10.25;;;5.38;;
73130;SDS011;64204;13.766;100.702;2023-11-18T11:06:43;10.25;;;5.40;;
73130;SDS011;64204;13.766;100.702;2023-11-18T11:09:28;12.13;;;6.22;;
73130;SDS011;64204;13.766;100.702;2023-11-18T11:12:06;8.68;;;4.82;;
73130;SDS011;64204;13.766;100.702;2023-11-18T11:14:46;13.20;;;7.90;;
73130;SDS011;64204;13.766;100.702;2023-11-18T11:17:27;16.92;;;10.88;;
73130;SDS011;64204;13.766;100.702;2023-11-18T11:22:42;10.52;;;5.55;;
73130;SDS011;64204;13.766;100.702;2023-11-18T11:28:22;9.95;;;5.55;;
73130;SDS011;64204;13.766;100.702;2023-11-18T11:33:37;8.43;;;5.53;;
73130;SDS011;64204;13.766;100.702;2023-11-18T11:36:17;19.85;;;7.05;;
73130;SDS011;64204;13.766;100.702;2023-11-18T11:38:50;12.27;;;6.20;;
73130;SDS011;64204;13.766;100.702;2023-11-18T11:41:18;26.45;;;15.40;;
73130;SDS011;64204;13.766;100.702;2023-11-18T11:43:52;32.33;;;19.88;;
73130;SDS011;64204;13.766;100.702;2023-11-18T11:46:24;12.38;;;6.80;;
73130;SDS011;64204;13.766;100.702;2023-11-18T11:48:52;10.52;;;6.22;;
73130;SDS011;64204;13.766;100.702;2023-11-18T11:53:52;10.25;;;5.70;;
73130;SDS011;64204;13.766;100.702;2023-11-18T11:56:37;11.82;;;6.75;;
73130;SDS011;64204;13.766;100.702;2023-11-18T11:59:05;12.52;;;6.82;;
73130;SDS011;64204;13.766;100.702;2023-11-18T12:01:37;9.48;;;6.05;;
73130;SDS011;64204;13.766;100.702;2023-11-18T12:04:04;9.15;;;5.93;;
73130;SDS011;64204;13.766;100.702;2023-11-18T12:06:42;17.85;;;8.88;;
73130;SDS011;64204;13.766;100.702;2023-11-18T12:09:09;12.73;;;6.53;;
73130;SDS011;64204;13.766;100.702;2023-11-18T12:11:37;17.48;;;9.35;;
73130;SDS011;64204;13.766;100.702;2023-11-18T12:14:11;9.35;;;6.25;;
73130;SDS011;64204;13.766;100.702;2023-11-18T12:19:29;11.63;;;6.28;;
73130;SDS011;64204;13.766;100.702;2023-11-18T12:21:58;15.52;;;8.32;;
73130;SDS011;64204;13.766;100.702;2023-11-18T12:24:26;20.88;;;10.50;;
73130;SDS011;64204;13.766;100.702;2023-11-18T12:29:33;10.27;;;6.40;;
73130;SDS011;64204;13.766;100.702;2023-11-18T12:32:00;10.90;;;6.70;;
73130;SDS011;64204;13.766;100.702;2023-11-18T12:45:43;16.35;;;8.07;;
73130;SDS011;64204;13.766;100.702;2023-11-18T12:48:20;19.73;;;8.88;;
73130;SDS011;64204;13.766;100.702;2023-11-18T12:50:55;12.55;;;7.18;;
73130;SDS011;64204;13.766;100.702;2023-11-18T12:53:23;17.30;;;8.90;;
73130;SDS011;64204;13.766;100.702;2023-11-18T12:55:49;12.38;;;6.88;;
73130;SDS011;64204;13.766;100.702;2023-11-18T12:58:17;15.32;;;7.45;;
73130;SDS011;64204;13.766;100.702;2023-11-18T13:00:44;18.15;;;8.80;;
73130;SDS011;64204;13.766;100.702;2023-11-18T13:03:11;21.65;;;9.02;;
73130;SDS011;64204;13.766;100.702;2023-11-18T13:05:43;19.25;;;9.00;;
73130;SDS011;64204;13.766;100.702;2023-11-18T13:08:10;15.35;;;7.43;;
73130;SDS011;64204;13.766;100.702;2023-11-18T13:10:40;15.50;;;7.30;;
73130;SDS011;64204;13.766;100.702;2023-11-18T13:13:07;17.27;;;7.85;;
73130;SDS011;64204;13.766;100.702;2023-11-18T13:15:34;12.38;;;6.97;;
73130;SDS011;64204;13.766;100.702;2023-11-18T13:18:01;21.02;;;9.80;;
73130;SDS011;64204;13.766;100.702;2023-11-18T13:20:34;14.07;;;8.07;;
73130;SDS011;64204;13.766;100.702;2023-11-18T13:23:01;19.50;;;8.75;;
73130;SDS011;64204;13.766;100.702;2023-11-18T13:25:37;24.70;;;11.00;;
73130;SDS011;64204;13.766;100.702;2023-11-18T13:28:13;18.38;;;9.75;;
73130;SDS011;64204;13.766;100.702;2023-11-18T13:30:41;12.05;;;6.03;;
73130;SDS011;64204;13.766;100.702;2023-11-18T13:33:08;9.75;;;6.15;;
73130;SDS011;64204;13.766;100.702;2023-11-18T13:35:35;10.80;;;6.32;;
73130;SDS011;64204;13.766;100.702;2023-11-18T13:38:02;12.25;;;6.75;;
73130;SDS011;64204;13.766;100.702;2023-11-18T13:40:45;9.75;;;6.00;;
73130;SDS011;64204;13.766;100.702;2023-11-18T13:43:15;13.85;;;6.90;;
73130;SDS011;64204;13.766;100.702;2023-11-18T13:45:41;14.65;;;6.13;;
73130;SDS011;64204;13.766;100.702;2023-11-18T13:48:08;15.07;;;6.80;;
73130;SDS011;64204;13.766;100.702;2023-11-18T13:50:34;12.82;;;6.22;;
73130;SDS011;64204;13.766;100.702;2023-11-18T13:53:04;18.50;;;9.23;;
73130;SDS011;64204;13.766;100.702;2023-11-18T13:55:33;12.77;;;6.97;;
73130;SDS011;64204;13.766;100.702;2023-11-18T13:58:01;10.13;;;6.35;;
73130;SDS011;64204;13.766;100.702;2023-11-18T14:00:30;22.73;;;10.88;;
73130;SDS011;64204;13.766;100.702;2023-11-18T14:02:57;12.50;;;6.78;;
73130;SDS011;64204;13.766;100.702;2023-11-18T14:05:24;17.58;;;9.48;;
73130;SDS011;64204;13.766;100.702;2023-11-18T14:07:54;19.02;;;9.73;;
73130;SDS011;64204;13.766;100.702;2023-11-18T14:10:34;21.40;;;9.73;;
73130;SDS011;64204;13.766;100.702;2023-11-18T14:13:04;10.13;;;6.25;;
73130;SDS011;64204;13.766;100.702;2023-11-18T14:15:42;28.70;;;15.30;;
73130;SDS011;64204;13.766;100.702;2023-11-18T14:18:10;15.25;;;8.55;;
73130;SDS011;64204;13.766;100.702;2023-11-18T14:20:38;23.13;;;10.05;;
73130;SDS011;64204;13.766;100.702;2023-11-18T14:23:05;12.80;;;7.95;;
73130;SDS011;64204;13.766;100.702;2023-11-18T14:25:31;13.57;;;7.63;;
73130;SDS011;64204;13.766;100.702;2023-11-18T14:27:59;18.50;;;8.30;;
73130;SDS011;64204;13.766;100.702;2023-11-18T14:32:53;13.15;;;6.68;;
73130;SDS011;64204;13.766;100.702;2023-11-18T14:35:20;12.18;;;7.00;;
73130;SDS011;64204;13.766;100.702;2023-11-18T14:37:48;19.90;;;10.20;;
73130;SDS011;64204;13.766;100.702;2023-11-18T14:40:15;19.95;;;8.95;;
73130;SDS011;64204;13.766;100.702;2023-11-18T14:42:41;16.90;;;8.98;;
73130;SDS011;64204;13.766;100.702;2023-11-18T14:45:12;17.40;;;9.50;;
73130;SDS011;64204;13.766;100.702;2023-11-18T14:47:39;16.55;;;9.55;;
73130;SDS011;64204;13.766;100.702;2023-11-18T14:50:06;11.82;;;6.95;;
73130;SDS011;64204;13.766;100.702;2023-11-18T14:52:43;25.73;;;13.65;;
73130;SDS011;64204;13.766;100.702;2023-11-18T14:55:11;32.72;;;17.75;;
73130;SDS011;64204;13.766;100.702;2023-11-18T14:57:40;12.43;;;8.02;;
73130;SDS011;64204;13.766;100.702;2023-11-18T15:00:09;22.08;;;10.48;;
73130;SDS011;64204;13.766;100.702;2023-11-18T15:02:47;17.80;;;9.55;;
73130;SDS011;64204;13.766;100.702;2023-11-18T15:05:15;23.00;;;10.32;;
73130;SDS011;64204;13.766;100.702;2023-11-18T15:07:45;16.23;;;8.48;;
73130;SDS011;64204;13.766;100.702;2023-11-18T15:10:19;17.52;;;9.18;;
73130;SDS011;64204;13.766;100.702;2023-11-18T15:12:50;17.98;;;10.20;;
73130;SDS011;64204;13.766;100.702;2023-11-18T15:15:27;14.18;;;8.18;;
73130;SDS011;64204;13.766;100.702;2023-11-18T15:18:00;12.00;;;7.60;;
73130;SDS011;64204;13.766;100.702;2023-11-18T15:20:34;17.45;;;9.32;;
73130;SDS011;64204;13.766;100.702;2023-11-18T15:23:03;14.90;;;7.82;;